Time;durP1;ratioP1;P1;durP2;ratioP2;P2;SDS_P1;SDS_P2;PMS_P1;PMS_P2;Temp;Humidity;BMP_temperature;BMP_pressure;BME280_temperature;BME280_humidity;BME280_pressure;Samples;Min_cycle;Max_cycle;Signal;HPM_P1;HPM_P2
2024/01/30 00:00:11;;;;;;;;;;;;;;;;;;4799316;28;1035198;-83
2024/01/30 00:02:38;;;;;;;;;;;;;;;;;;4794406;28;1292194;-83
2024/01/30 00:05:06;;;;;;;;;;;;;;;;;;4686902;28;2326271;-82
2024/01/30 00:07:33;;;;;;;;;;;;;;;;;;4798230;28;816170;-82
2024/01/30 00:10:01;;;;;;;;;;;;;;;;;;4754455;28;1753230;-82
2024/01/30 00:12:28;;;;;;;;;;;;;;;;;;4758652;28;1283194;-83
2024/01/30 00:14:56;;;;;;;;;;;;;;;;;;4689821;28;1498201;-83
2024/01/30 00:17:25;;;;;;;;;;;;;;;;;;4736797;28;1314185;-83
2024/01/30 00:19:53;;;;;;;;;;;;;;;;;;4666783;28;1572221;-82
2024/01/30 00:22:20;;;;;;;;;;;;;;;;;;4715300;28;1481169;-83
2024/01/30 00:24:50;;;;;;;;;;;;;;;;;;4545002;28;3756189;-82
2024/01/30 00:27:18;;;;;;;;;;;;;;;;;;4638634;28;1286179;-83
2024/01/30 00:29:54;;;;;;;;;;;;;;;;;;4554680;28;8058282;-83
2024/01/30 00:32:23;;;;;;;;;;;;;;;;;;4559678;28;4058205;-82
2024/01/30 00:34:53;;;;;;;;;;;;;;;;;;4555781;28;3509199;-82
2024/01/30 00:37:23;;;;;;;;;;;;;;;;;;4564265;28;2642260;-82
2024/01/30 00:39:50;;;;;;;;;;;;;;;;;;4668339;28;2684201;-83
2024/01/30 00:42:19;;;;;;;;;;;;;;;;;;4479711;28;3909239;-83
2024/01/30 00:44:48;;;;;;;;;;;;;;;;;;4600015;28;2286211;-83
2024/01/30 00:47:15;;;;;;;;;;;;;;;;;;4687702;28;1225195;-82
2024/01/30 00:49:43;;;;;;;;;;;;;;;;;;4590555;28;2447212;-82
2024/01/30 00:52:11;;;;;;;;;;;;;;;;;;4645216;28;1640177;-82
2024/01/30 00:54:39;;;;;;;;;;;;;;;;;;4646162;28;2202165;-81
2024/01/30 00:57:08;;;;;;;;;;;;;;;;;;4574855;28;3201201;-82
2024/01/30 00:59:35;;;;;;;;;;;;;;;;;;4633735;28;2169260;-82
2024/01/30 01:02:04;;;;;;;;;;;;;;;;;;4481178;28;4199155;-82
2024/01/30 01:04:32;;;;;;;;;;;;;;;;;;4758426;28;908216;-82
2024/01/30 01:07:00;;;;;;;;;;;;;;;;;;4630986;28;2089164;-82
2024/01/30 01:09:28;;;;;;;;;;;;;;;;;;4634270;28;1447202;-82
2024/01/30 01:11:55;;;;;;;;;;;;;;;;;;4857422;28;782264;-81
2024/01/30 01:14:23;;;;;;;;;;;;;;;;;;4671482;28;3083218;-82
2024/01/30 01:16:50;;;;;;;;;;;;;;;;;;4764031;28;917182;-82
2024/01/30 01:19:17;;;;;;;;;;;;;;;;;;4837642;28;1115175;-82
2024/01/30 01:21:45;;;;;;;;;;;;;;;;;;4827454;28;604175;-82
2024/01/30 01:24:13;;;;;;;;;;;;;;;;;;4758367;28;1782172;-82
2024/01/30 01:26:40;;;;;;;;;;;;;;;;;;4796102;28;951200;-82
2024/01/30 01:29:11;;;;;;;;;;;;;;;;;;4754336;28;1146360;-82
2024/01/30 01:31:43;;;;;;;;;;;;;;;;;;4817938;28;566207;-82
2024/01/30 01:34:11;;;;;;;;;;;;;;;;;;4762587;28;987177;-82
2024/01/30 01:36:38;;;;;;;;;;;;;;;;;;4765035;28;1232178;-83
2024/01/30 01:39:05;;;;;;;;;;;;;;;;;;4820918;28;975167;-82
2024/01/30 01:41:36;;;;;;;;;;;;;;;;;;4844241;28;670116;-83
2024/01/30 01:44:03;;;;;;;;;;;;;;;;;;4692447;28;1344210;-82
2024/01/30 01:46:30;;;;;;;;;;;;;;;;;;4824533;28;873163;-83
2024/01/30 01:48:57;;;;;;;;;;;;;;;;;;4838311;28;1024230;-82
2024/01/30 01:51:26;;;;;;;;;;;;;;;;;;4643957;28;3204183;-82
2024/01/30 01:53:53;;;;;;;;;;;;;;;;;;4549176;28;3026261;-83
2024/01/30 01:56:22;;;;;;;;;;;;;;;;;;4612927;28;4603178;-82
2024/01/30 01:58:51;;;;;;;;;;;;;;;;;;4585580;28;2906265;-83
2024/01/30 02:01:20;;;;;;;;;;;;;;;;;;4645370;28;1466241;-82
2024/01/30 02:03:48;;;;;;;;;;;;;;;;;;4636662;28;1431211;-82
2024/01/30 02:06:15;;;;;;;;;;;;;;;;;;4809843;28;699203;-82
2024/01/30 02:08:43;;;;;;;;;;;;;;;;;;4813648;28;661172;-82
2024/01/30 02:11:11;;;;;;;;;;;;;;;;;;4779916;28;677178;-82
2024/01/30 02:13:40;;;;;;;;;;;;;;;;;;4772586;28;1226190;-82
2024/01/30 02:16:07;;;;;;;;;;;;;;;;;;4800791;28;1034179;-82
2024/01/30 02:18:35;;;;;;;;;;;;;;;;;;4807640;28;999195;-82
2024/01/30 02:21:02;;;;;;;;;;;;;;;;;;4770146;28;808142;-82
2024/01/30 02:23:30;;;;;;;;;;;;;;;;;;4876047;28;418140;-82
2024/01/30 02:25:57;;;;;;;;;;;;;;;;;;4769430;28;1172160;-82
2024/01/30 02:28:25;;;;;;;;;;;;;;;;;;4797063;28;1461154;-82
2024/01/30 02:30:52;;;;;;;;;;;;;;;;;;4763660;28;1818181;-82
2024/01/30 02:33:22;;;;;;;;;;;;;;;;;;4863857;28;455160;-83
2024/01/30 02:35:49;;;;;;;;;;;;;;;;;;4774085;28;1527138;-82
2024/01/30 02:38:16;;;;;;;;;;;;;;;;;;4865604;28;642194;-82
2024/01/30 02:40:43;;;;;;;;;;;;;;;;;;4808664;28;901218;-82
2024/01/30 02:43:11;;;;;;;;;;;;;;;;;;4776753;28;808182;-82
2024/01/30 02:45:38;;;;;;;;;;;;;;;;;;4755959;28;1498202;-82
2024/01/30 02:48:05;;;;;;;;;;;;;;;;;;4734396;28;1988251;-82
2024/01/30 02:50:33;;;;;;;;;;;;;;;;;;4865041;28;385179;-82
2024/01/30 02:53:00;;;;;;;;;;;;;;;;;;4854265;28;1078208;-82
2024/01/30 02:55:29;;;;;;;;;;;;;;;;;;4804047;28;1266177;-82
2024/01/30 02:57:56;;;;;;;;;;;;;;;;;;4772963;28;928168;-82
2024/01/30 03:00:24;;;;;;;;;;;;;;;;;;4791254;28;1000199;-82
2024/01/30 03:02:52;;;;;;;;;;;;;;;;;;4722330;28;1810170;-82
2024/01/30 03:05:19;;;;;;;;;;;;;;;;;;4837342;28;947159;-83
2024/01/30 03:07:46;;;;;;;;;;;;;;;;;;4791248;28;1301196;-82
2024/01/30 03:10:13;;;;;;;;;;;;;;;;;;4754058;28;1554173;-81
2024/01/30 03:12:41;;;;;;;;;;;;;;;;;;4761015;28;1248139;-82
2024/01/30 03:15:09;;;;;;;;;;;;;;;;;;4873521;28;515183;-83
2024/01/30 03:17:43;;;;;;;;;;;;;;;;;;4755102;28;738153;-83
2024/01/30 03:20:10;;;;;;;;;;;;;;;;;;4762564;28;1362163;-82
2024/01/30 03:22:40;;;;;;;;;;;;;;;;;;4821775;28;1150183;-82
2024/01/30 03:25:07;;;;;;;;;;;;;;;;;;4826715;28;573165;-82
2024/01/30 03:27:35;;;;;;;;;;;;;;;;;;4808560;28;781193;-83
2024/01/30 03:30:02;;;;;;;;;;;;;;;;;;4811223;28;900167;-83
2024/01/30 03:32:30;;;;;;;;;;;;;;;;;;4801117;28;811234;-83
2024/01/30 03:34:58;;;;;;;;;;;;;;;;;;4850867;28;683170;-83
2024/01/30 03:37:25;;;;;;;;;;;;;;;;;;4790857;28;1439266;-83
2024/01/30 03:39:52;;;;;;;;;;;;;;;;;;4771733;28;921153;-82
2024/01/30 03:42:20;;;;;;;;;;;;;;;;;;4759826;28;1478200;-82
2024/01/30 03:44:53;;;;;;;;;;;;;;;;;;4780276;28;924180;-83
2024/01/30 03:47:20;;;;;;;;;;;;;;;;;;4829592;28;739313;-82
2024/01/30 03:49:47;;;;;;;;;;;;;;;;;;4729953;28;985156;-82
2024/01/30 03:52:17;;;;;;;;;;;;;;;;;;4688530;28;1705181;-82
2024/01/30 03:54:45;;;;;;;;;;;;;;;;;;4846486;28;1017141;-82
2024/01/30 03:57:12;;;;;;;;;;;;;;;;;;4793192;28;961156;-82
2024/01/30 03:59:39;;;;;;;;;;;;;;;;;;4833770;28;830155;-82
2024/01/30 04:02:07;;;;;;;;;;;;;;;;;;4790493;28;1181159;-82
2024/01/30 04:04:37;;;;;;;;;;;;;;;;;;4746059;28;2579202;-82
2024/01/30 04:07:06;;;;;;;;;;;;;;;;;;4693997;28;2685192;-82
2024/01/30 04:09:36;;;;;;;;;;;;;;;;;;4850881;28;958165;-82
2024/01/30 04:12:04;;;;;;;;;;;;;;;;;;4767386;28;810235;-83
2024/01/30 04:14:31;;;;;;;;;;;;;;;;;;4698463;28;4066197;-82
2024/01/30 04:16:58;;;;;;;;;;;;;;;;;;4775905;28;1208152;-82
2024/01/30 04:19:25;;;;;;;;;;;;;;;;;;4768437;28;1102190;-82
2024/01/30 04:21:52;;;;;;;;;;;;;;;;;;4824004;28;747184;-82
2024/01/30 04:24:20;;;;;;;;;;;;;;;;;;4859375;28;1318260;-82
2024/01/30 04:26:47;;;;;;;;;;;;;;;;;;4880089;28;379164;-83
2024/01/30 04:29:14;;;;;;;;;;;;;;;;;;4840356;28;821185;-82
2024/01/30 04:31:42;;;;;;;;;;;;;;;;;;4848339;28;507176;-82
2024/01/30 04:34:09;;;;;;;;;;;;;;;;;;4827024;28;538159;-82
2024/01/30 04:36:36;;;;;;;;;;;;;;;;;;4836029;28;421179;-82
2024/01/30 04:39:03;;;;;;;;;;;;;;;;;;4786602;28;1075172;-82
2024/01/30 04:41:32;;;;;;;;;;;;;;;;;;4827639;28;641172;-82
2024/01/30 04:43:59;;;;;;;;;;;;;;;;;;4783852;28;1392169;-82
2024/01/30 04:46:26;;;;;;;;;;;;;;;;;;4765054;28;1224187;-82
2024/01/30 04:48:54;;;;;;;;;;;;;;;;;;4869413;28;934198;-83
2024/01/30 04:51:21;;;;;;;;;;;;;;;;;;4813858;28;1168177;-83
2024/01/30 04:53:49;;;;;;;;;;;;;;;;;;4809003;28;905171;-83
2024/01/30 04:56:16;;;;;;;;;;;;;;;;;;4838508;28;608167;-83
2024/01/30 04:58:43;;;;;;;;;;;;;;;;;;4807418;28;742164;-83
2024/01/30 05:01:10;;;;;;;;;;;;;;;;;;4812713;28;784174;-83
2024/01/30 05:03:51;;;;;;;;;;;;;;;;;;4818802;28;873169;-82
2024/01/30 05:06:19;;;;;;;;;;;;;;;;;;4754182;28;735175;-83
2024/01/30 05:08:46;;;;;;;;;;;;;;;;;;4836458;28;688187;-82
2024/01/30 05:11:13;;;;;;;;;;;;;;;;;;4813888;28;551167;-83
2024/01/30 05:13:41;;;;;;;;;;;;;;;;;;4838410;28;611164;-83
2024/01/30 05:16:08;;;;;;;;;;;;;;;;;;4804491;28;599239;-83
2024/01/30 05:18:37;;;;;;;;;;;;;;;;;;4843544;28;1258164;-83
2024/01/30 05:21:21;;;;;;;;;;;;;;;;;;4797034;28;776205;-83
2024/01/30 05:23:48;;;;;;;;;;;;;;;;;;4839052;28;720250;-83
2024/01/30 05:26:16;;;;;;;;;;;;;;;;;;4806950;28;845165;-83
2024/01/30 05:28:46;;;;;;;;;;;;;;;;;;4790529;28;806167;-83
2024/01/30 05:31:13;;;;;;;;;;;;;;;;;;4825783;28;794162;-83
2024/01/30 05:33:48;;;;;;;;;;;;;;;;;;4782963;28;1399184;-82
2024/01/30 05:36:15;;;;;;;;;;;;;;;;;;4821157;28;912182;-83
2024/01/30 05:38:43;;;;;;;;;;;;;;;;;;4745449;28;1327171;-83
2024/01/30 05:41:10;;;;;;;;;;;;;;;;;;4692163;28;1053165;-83
2024/01/30 05:43:38;;;;;;;;;;;;;;;;;;4876398;28;653161;-82
2024/01/30 05:46:21;;;;;;;;;;;;;;;;;;4810861;28;1833182;-82
2024/01/30 05:48:51;;;;;;;;;;;;;;;;;;4755963;28;1321169;-82
2024/01/30 05:51:18;;;;;;;;;;;;;;;;;;4868466;28;445171;-82
2024/01/30 05:53:46;;;;;;;;;;;;;;;;;;4775002;28;805176;-81
2024/01/30 05:56:13;;;;;;;;;;;;;;;;;;4839491;28;1072191;-81
2024/01/30 05:58:40;;;;;;;;;;;;;;;;;;4821589;28;832185;-82
2024/01/30 06:01:10;;;;;;;;;;;;;;;;;;4814355;28;476171;-82
2024/01/30 06:03:41;;;;;;;;;;;;;;;;;;4736237;28;1075184;-81
2024/01/30 06:06:08;;;;;;;;;;;;;;;;;;4818910;28;734178;-82
2024/01/30 06:08:35;;;;;;;;;;;;;;;;;;4821617;28;732189;-82
2024/01/30 06:11:03;;;;;;;;;;;;;;;;;;4870919;28;600190;-82
2024/01/30 06:13:31;;;;;;;;;;;;;;;;;;4844483;28;646224;-82
2024/01/30 06:15:59;;;;;;;;;;;;;;;;;;4854270;28;987185;-82
2024/01/30 06:18:29;;;;;;;;;;;;;;;;;;4905267;28;518189;-82
2024/01/30 06:20:56;;;;;;;;;;;;;;;;;;4813916;28;720187;-81
2024/01/30 06:23:23;;;;;;;;;;;;;;;;;;4939626;28;197171;-83
2024/01/30 06:25:50;;;;;;;;;;;;;;;;;;4808857;28;896203;-83
2024/01/30 06:28:18;;;;;;;;;;;;;;;;;;4790554;28;1351249;-83
2024/01/30 06:30:46;;;;;;;;;;;;;;;;;;4847435;28;677177;-83
2024/01/30 06:33:13;;;;;;;;;;;;;;;;;;4819810;28;662152;-82
2024/01/30 06:35:41;;;;;;;;;;;;;;;;;;4811055;28;1055192;-83
2024/01/30 06:38:10;;;;;;;;;;;;;;;;;;4846069;28;565212;-82
2024/01/30 06:40:38;;;;;;;;;;;;;;;;;;4867833;28;402160;-82
2024/01/30 06:43:11;;;;;;;;;;;;;;;;;;4751292;28;1071168;-82
2024/01/30 06:45:42;;;;;;;;;;;;;;;;;;4836264;28;734157;-82
2024/01/30 06:48:11;;;;;;;;;;;;;;;;;;4869210;28;832185;-81
2024/01/30 06:50:40;;;;;;;;;;;;;;;;;;4825973;28;643130;-82
2024/01/30 06:53:07;;;;;;;;;;;;;;;;;;4864177;28;704198;-82
2024/01/30 06:55:34;;;;;;;;;;;;;;;;;;4838422;28;843193;-82
2024/01/30 06:58:07;;;;;;;;;;;;;;;;;;4895197;28;423157;-82
2024/01/30 07:00:34;;;;;;;;;;;;;;;;;;4858139;28;496211;-82
2024/01/30 07:03:02;;;;;;;;;;;;;;;;;;4839795;28;471158;-82
2024/01/30 07:05:30;;;;;;;;;;;;;;;;;;4816137;28;994255;-82
2024/01/30 07:07:57;;;;;;;;;;;;;;;;;;4798371;28;889197;-82
2024/01/30 07:10:24;;;;;;;;;;;;;;;;;;4891967;28;611166;-81
2024/01/30 07:12:52;;;;;;;;;;;;;;;;;;4831698;28;735166;-82
2024/01/30 07:20:55;;;;;;;;;;;;;;;;;;4827473;28;812160;-81
2024/01/30 07:23:22;;;;;;;;;;;;;;;;;;4867406;28;716186;-82
2024/01/30 07:25:50;;;;;;;;;;;;;;;;;;4842648;28;503157;-82
2024/01/30 07:28:17;;;;;;;;;;;;;;;;;;4846916;28;886211;-82
2024/01/30 07:30:44;;;;;;;;;;;;;;;;;;4851317;28;943153;-82
2024/01/30 07:33:15;;;;;;;;;;;;;;;;;;4766141;28;1125179;-81
2024/01/30 07:35:43;;;;;;;;;;;;;;;;;;4839680;28;751156;-81
2024/01/30 07:38:10;;;;;;;;;;;;;;;;;;4913485;28;352149;-81
2024/01/30 07:40:37;;;;;;;;;;;;;;;;;;4761024;28;1352179;-81
2024/01/30 07:43:05;;;;;;;;;;;;;;;;;;4897502;28;446182;-81
2024/01/30 07:45:39;;;;;;;;;;;;;;;;;;4858845;28;371161;-81
2024/01/30 07:48:14;;;;;;;;;;;;;;;;;;4854286;28;709194;-81
2024/01/30 07:50:41;;;;;;;;;;;;;;;;;;4846292;28;512203;-82
2024/01/30 07:53:09;;;;;;;;;;;;;;;;;;4862374;28;599179;-82
2024/01/30 07:55:36;;;;;;;;;;;;;;;;;;4826487;28;823313;-82
2024/01/30 08:03:41;;;;;;;;;;;;;;;;;;4824702;28;855199;-81
2024/01/30 08:06:08;;;;;;;;;;;;;;;;;;4799934;28;1041164;-82
2024/01/30 08:08:37;;;;;;;;;;;;;;;;;;4833756;28;620155;-81
2024/01/30 08:11:10;;;;;;;;;;;;;;;;;;4865195;28;491168;-82
2024/01/30 08:13:37;;;;;;;;;;;;;;;;;;4814776;28;1132170;-81
2024/01/30 08:16:07;;;;;;;;;;;;;;;;;;4815481;28;763154;-81
2024/01/30 08:18:37;;;;;;;;;;;;;;;;;;4829095;28;660179;-81
2024/01/30 08:21:04;;;;;;;;;;;;;;;;;;4802706;28;1095171;-81
2024/01/30 08:23:31;;;;;;;;;;;;;;;;;;4772586;28;1142258;-81
2024/01/30 08:26:02;;;;;;;;;;;;;;;;;;4839283;28;969193;-81
2024/01/30 08:28:29;;;;;;;;;;;;;;;;;;4883219;28;356163;-82
2024/01/30 08:30:57;;;;;;;;;;;;;;;;;;4793268;28;1587208;-82
2024/01/30 08:33:27;;;;;;;;;;;;;;;;;;4843930;28;1087194;-83
2024/01/30 08:35:57;;;;;;;;;;;;;;;;;;4831225;28;1221159;-82
2024/01/30 08:38:24;;;;;;;;;;;;;;;;;;4792607;28;1006149;-83
2024/01/30 08:40:51;;;;;;;;;;;;;;;;;;4843032;28;1346166;-82
2024/01/30 08:43:18;;;;;;;;;;;;;;;;;;4815743;28;931230;-82
2024/01/30 08:45:46;;;;;;;;;;;;;;;;;;4871582;28;451186;-82
2024/01/30 08:48:13;;;;;;;;;;;;;;;;;;4869082;28;593155;-82
2024/01/30 08:50:41;;;;;;;;;;;;;;;;;;4776135;28;1540175;-82
2024/01/30 08:53:08;;;;;;;;;;;;;;;;;;4804632;28;924198;-82
2024/01/30 08:55:36;;;;;;;;;;;;;;;;;;4829374;28;717159;-81
2024/01/30 08:58:04;;;;;;;;;;;;;;;;;;4918806;28;260156;-82
2024/01/30 09:00:32;;;;;;;;;;;;;;;;;;4834312;28;1033180;-81
2024/01/30 09:02:59;;;;;;;;;;;;;;;;;;4840163;28;540172;-81
2024/01/30 09:05:26;;;;;;;;;;;;;;;;;;4856273;28;917238;-81
2024/01/30 09:07:56;;;;;;;;;;;;;;;;;;4849252;28;734167;-82
2024/01/30 09:10:24;;;;;;;;;;;;;;;;;;4854415;28;658153;-81
2024/01/30 09:12:51;;;;;;;;;;;;;;;;;;4818550;28;836219;-81
2024/01/30 09:15:19;;;;;;;;;;;;;;;;;;4889240;28;352187;-81
2024/01/30 09:17:46;;;;;;;;;;;;;;;;;;4884607;28;432218;-81
2024/01/30 09:20:22;;;;;;;;;;;;;;;;;;4845565;28;793174;-81
2024/01/30 09:22:50;;;;;;;;;;;;;;;;;;4860286;28;649188;-81
2024/01/30 09:25:20;;;;;;;;;;;;;;;;;;4786371;28;876199;-81
2024/01/30 09:27:47;;;;;;;;;;;;;;;;;;4853645;28;524176;-81
2024/01/30 09:30:14;;;;;;;;;;;;;;;;;;4829280;28;640165;-81
2024/01/30 09:32:43;;;;;;;;;;;;;;;;;;4910037;28;538150;-81
2024/01/30 09:35:10;;;;;;;;;;;;;;;;;;4899519;28;298186;-81
2024/01/30 09:37:37;;;;;;;;;;;;;;;;;;4906648;28;361239;-80
2024/01/30 09:40:05;;;;;;;;;;;;;;;;;;4856809;28;584164;-81
2024/01/30 09:42:32;;;;;;;;;;;;;;;;;;4857028;28;570166;-81
2024/01/30 09:44:59;;;;;;;;;;;;;;;;;;4855913;28;811204;-81
2024/01/30 09:47:29;;;;;;;;;;;;;;;;;;4698874;28;907187;-81
2024/01/30 09:49:58;;;;;;;;;;;;;;;;;;4775395;28;759226;-80
2024/01/30 09:52:29;;;;;;;;;;;;;;;;;;4845093;28;545207;-82
2024/01/30 09:54:56;;;;;;;;;;;;;;;;;;4894395;28;482162;-80
2024/01/30 09:57:23;;;;;;;;;;;;;;;;;;4963106;28;148168;-81
2024/01/30 09:59:51;;;;;;;;;;;;;;;;;;4925250;28;433143;-82
2024/01/30 10:02:18;;;;;;;;;;;;;;;;;;4913823;28;440154;-81
2024/01/30 10:04:46;;;;;;;;;;;;;;;;;;4859148;28;725207;-81
2024/01/30 10:07:13;;;;;;;;;;;;;;;;;;4894751;28;573156;-81
2024/01/30 10:09:41;;;;;;;;;;;;;;;;;;4934625;28;287169;-81
2024/01/30 10:12:08;;;;;;;;;;;;;;;;;;4829077;28;565182;-82
2024/01/30 10:14:38;;;;;;;;;;;;;;;;;;4887625;28;303178;-81
2024/01/30 10:17:06;;;;;;;;;;;;;;;;;;4876910;28;558164;-81
2024/01/30 10:19:40;;;;;;;;;;;;;;;;;;4890457;28;406152;-81
2024/01/30 10:22:07;;;;;;;;;;;;;;;;;;4882179;28;332166;-82
2024/01/30 10:24:37;;;;;;;;;;;;;;;;;;4896648;28;392164;-82
2024/01/30 10:27:04;;;;;;;;;;;;;;;;;;4981393;28;45112;-81
2024/01/30 10:29:32;;;;;;;;;;;;;;;;;;4980708;28;58122;-81
2024/01/30 10:32:13;;;;;;;;;;;;;;;;;;4984373;28;29099;-81
2024/01/30 10:34:40;;;;;;;;;;;;;;;;;;4947745;28;199226;-81
2024/01/30 10:37:12;;;;;;;;;;;;;;;;;;4947680;28;249154;-82
2024/01/30 10:39:39;;;;;;;;;;;;;;;;;;4912342;28;450232;-82
2024/01/30 10:42:07;;;;;;;;;;;;;;;;;;4901239;28;326149;-82
2024/01/30 10:44:34;;;;;;;;;;;;;;;;;;4958536;28;476169;-82
2024/01/30 10:47:02;;;;;;;;;;;;;;;;;;4919075;28;323151;-82
2024/01/30 10:49:29;;;;;;;;;;;;;;;;;;4932951;28;398182;-82
2024/01/30 10:51:56;;;;;;;;;;;;;;;;;;4884848;28;390183;-82
2024/01/30 10:54:23;;;;;;;;;;;;;;;;;;4925013;28;332162;-83
2024/01/30 10:56:51;;;;;;;;;;;;;;;;;;4903651;28;433164;-83
2024/01/30 10:59:21;;;;;;;;;;;;;;;;;;4920880;28;348162;-83
2024/01/30 11:01:50;;;;;;;;;;;;;;;;;;4926784;28;340156;-83
2024/01/30 11:04:18;;;;;;;;;;;;;;;;;;4939510;28;303157;-82
2024/01/30 11:06:45;;;;;;;;;;;;;;;;;;4939282;28;275159;-83
2024/01/30 11:09:12;;;;;;;;;;;;;;;;;;4941440;28;179146;-83
2024/01/30 11:11:40;;;;;;;;;;;;;;;;;;4925901;28;255165;-83
2024/01/30 11:14:07;;;;;;;;;;;;;;;;;;4930011;28;271166;-83
2024/01/30 11:16:34;;;;;;;;;;;;;;;;;;4934528;28;270139;-83
2024/01/30 11:19:02;;;;;;;;;;;;;;;;;;4932832;28;164158;-83
2024/01/30 11:21:29;;;;;;;;;;;;;;;;;;4937614;28;240145;-83
2024/01/30 11:23:56;;;;;;;;;;;;;;;;;;4862414;28;472172;-84
2024/01/30 11:26:23;;;;;;;;;;;;;;;;;;4908240;28;385158;-84
2024/01/30 11:28:51;;;;;;;;;;;;;;;;;;4933420;28;244153;-83
2024/01/30 11:31:18;;;;;;;;;;;;;;;;;;4904131;28;629162;-83
2024/01/30 11:33:45;;;;;;;;;;;;;;;;;;4953468;28;92159;-83
2024/01/30 11:36:12;;;;;;;;;;;;;;;;;;4986449;28;34109;-83
2024/01/30 11:38:39;;;;;;;;;;;;;;;;;;4975472;28;58142;-83
2024/01/30 11:41:08;;;;;;;;;;;;;;;;;;4980159;28;84128;-82
2024/01/30 11:43:35;;;;;;;;;;;;;;;;;;4999818;28;35111;-83
2024/01/30 11:46:02;;;;;;;;;;;;;;;;;;4989655;28;26101;-83
2024/01/30 11:48:30;;;;;;;;;;;;;;;;;;4995958;28;28120;-83
2024/01/30 11:51:00;;;;;;;;;;;;;;;;;;4986125;28;35065;-83
2024/01/30 11:53:27;;;;;;;;;;;;;;;;;;4991866;28;28114;-83
2024/01/30 11:55:54;;;;;;;;;;;;;;;;;;4988268;28;30085;-83
2024/01/30 11:58:21;;;;;;;;;;;;;;;;;;4994342;28;27091;-83
2024/01/30 12:00:51;;;;;;;;;;;;;;;;;;4984136;28;36135;-83
2024/01/30 12:03:18;;;;;;;;;;;;;;;;;;4962327;28;239154;-83
2024/01/30 12:05:45;;;;;;;;;;;;;;;;;;4877990;28;660178;-83
2024/01/30 12:08:12;;;;;;;;;;;;;;;;;;4948503;28;163172;-83
2024/01/30 12:10:42;;;;;;;;;;;;;;;;;;4963896;28;169152;-82
2024/01/30 12:13:11;;;;;;;;;;;;;;;;;;4982910;28;62074;-83
2024/01/30 12:15:38;;;;;;;;;;;;;;;;;;4922364;28;363161;-83
2024/01/30 12:18:05;;;;;;;;;;;;;;;;;;4924987;28;245155;-82
2024/01/30 12:20:33;;;;;;;;;;;;;;;;;;4926555;28;217152;-83
2024/01/30 12:23:00;;;;;;;;;;;;;;;;;;4929662;28;262150;-83
2024/01/30 12:25:28;;;;;;;;;;;;;;;;;;4953785;28;124117;-83
2024/01/30 12:27:55;;;;;;;;;;;;;;;;;;4937935;28;261195;-83
2024/01/30 12:30:22;;;;;;;;;;;;;;;;;;4940182;28;152164;-83
2024/01/30 12:32:49;;;;;;;;;;;;;;;;;;4944356;28;201153;-83
2024/01/30 12:35:17;;;;;;;;;;;;;;;;;;4940081;28;225185;-83
2024/01/30 12:37:44;;;;;;;;;;;;;;;;;;4920752;28;213150;-83
2024/01/30 12:40:13;;;;;;;;;;;;;;;;;;4927481;28;239154;-82
2024/01/30 12:42:42;;;;;;;;;;;;;;;;;;4938750;28;195175;-83
2024/01/30 12:45:09;;;;;;;;;;;;;;;;;;4954046;28;137145;-82
2024/01/30 12:47:37;;;;;;;;;;;;;;;;;;4918405;28;216180;-83
2024/01/30 12:50:04;;;;;;;;;;;;;;;;;;4944769;28;187167;-82
2024/01/30 12:52:31;;;;;;;;;;;;;;;;;;4932529;28;238143;-82
2024/01/30 12:54:58;;;;;;;;;;;;;;;;;;4936031;28;222147;-82
2024/01/30 12:57:26;;;;;;;;;;;;;;;;;;4910649;28;241154;-83
2024/01/30 12:59:53;;;;;;;;;;;;;;;;;;4943957;28;130163;-82
2024/01/30 13:02:20;;;;;;;;;;;;;;;;;;4939613;28;234145;-83
2024/01/30 13:04:47;;;;;;;;;;;;;;;;;;4946741;28;261164;-82
2024/01/30 13:07:16;;;;;;;;;;;;;;;;;;4930473;28;230168;-82
2024/01/30 13:09:44;;;;;;;;;;;;;;;;;;4954994;28;247179;-82
2024/01/30 13:12:11;;;;;;;;;;;;;;;;;;4967852;28;82160;-83
2024/01/30 13:14:38;;;;;;;;;;;;;;;;;;4974102;28;95146;-82
2024/01/30 13:17:05;;;;;;;;;;;;;;;;;;4969034;28;122157;-82
2024/01/30 13:19:32;;;;;;;;;;;;;;;;;;4969728;28;127141;-82
2024/01/30 13:21:59;;;;;;;;;;;;;;;;;;4969983;28;84103;-82
2024/01/30 13:24:26;;;;;;;;;;;;;;;;;;4961402;28;79170;-82
2024/01/30 13:26:54;;;;;;;;;;;;;;;;;;4974412;28;88178;-82
2024/01/30 13:29:24;;;;;;;;;;;;;;;;;;4944206;28;334170;-82
2024/01/30 13:31:52;;;;;;;;;;;;;;;;;;4935503;28;387160;-82
2024/01/30 13:34:19;;;;;;;;;;;;;;;;;;4910695;28;438155;-82
2024/01/30 13:36:49;;;;;;;;;;;;;;;;;;4938438;28;245177;-83
2024/01/30 13:39:16;;;;;;;;;;;;;;;;;;4887477;28;458150;-82
2024/01/30 13:41:44;;;;;;;;;;;;;;;;;;4928905;28;244163;-82
2024/01/30 13:44:12;;;;;;;;;;;;;;;;;;4898780;28;580237;-82
2024/01/30 13:46:39;;;;;;;;;;;;;;;;;;4908409;28;315151;-83
2024/01/30 13:49:07;;;;;;;;;;;;;;;;;;4888414;28;314162;-82
2024/01/30 13:51:35;;;;;;;;;;;;;;;;;;4890059;28;407161;-82
2024/01/30 13:54:03;;;;;;;;;;;;;;;;;;4916436;28;290182;-82
2024/01/30 13:56:30;;;;;;;;;;;;;;;;;;4923563;28;206158;-83
2024/01/30 13:58:57;;;;;;;;;;;;;;;;;;4893851;28;301191;-83
2024/01/30 14:01:24;;;;;;;;;;;;;;;;;;4921772;28;215166;-83
2024/01/30 14:03:54;;;;;;;;;;;;;;;;;;4920906;28;192161;-82
2024/01/30 14:06:22;;;;;;;;;;;;;;;;;;4921747;28;338178;-82
2024/01/30 14:08:49;;;;;;;;;;;;;;;;;;4926520;28;463168;-82
2024/01/30 14:11:24;;;;;;;;;;;;;;;;;;4877182;28;317160;-83
2024/01/30 14:13:52;;;;;;;;;;;;;;;;;;4907702;28;404157;-82
2024/01/30 14:16:19;;;;;;;;;;;;;;;;;;4923318;28;193172;-82
2024/01/30 14:18:46;;;;;;;;;;;;;;;;;;4912795;28;419197;-82
2024/01/30 14:21:14;;;;;;;;;;;;;;;;;;4922215;28;271173;-82
2024/01/30 14:23:41;;;;;;;;;;;;;;;;;;4925912;28;270164;-82
2024/01/30 14:26:08;;;;;;;;;;;;;;;;;;4909273;28;297146;-82
2024/01/30 14:28:35;;;;;;;;;;;;;;;;;;4934123;28;241155;-82
2024/01/30 14:31:03;;;;;;;;;;;;;;;;;;4899505;28;496160;-82
2024/01/30 14:33:30;;;;;;;;;;;;;;;;;;4937819;28;197143;-82
2024/01/30 14:35:57;;;;;;;;;;;;;;;;;;4918026;28;268158;-82
2024/01/30 14:38:28;;;;;;;;;;;;;;;;;;4923174;28;361145;-82
2024/01/30 14:40:55;;;;;;;;;;;;;;;;;;4908959;28;263170;-82
2024/01/30 14:43:22;;;;;;;;;;;;;;;;;;4923853;28;254092;-82
2024/01/30 14:45:52;;;;;;;;;;;;;;;;;;4933792;28;232177;-83
2024/01/30 14:48:19;;;;;;;;;;;;;;;;;;4888865;28;478153;-83
2024/01/30 14:50:46;;;;;;;;;;;;;;;;;;4908836;28;355198;-82
2024/01/30 14:53:13;;;;;;;;;;;;;;;;;;4927648;28;269171;-82
2024/01/30 14:55:40;;;;;;;;;;;;;;;;;;4914981;28;339153;-82
2024/01/30 14:58:08;;;;;;;;;;;;;;;;;;4930356;28;192257;-82
2024/01/30 15:00:38;;;;;;;;;;;;;;;;;;4910600;28;398193;-83
2024/01/30 15:03:08;;;;;;;;;;;;;;;;;;4879838;28;453161;-82
2024/01/30 15:05:36;;;;;;;;;;;;;;;;;;4922688;28;196165;-83
2024/01/30 15:08:03;;;;;;;;;;;;;;;;;;4917043;28;230196;-82
2024/01/30 15:10:30;;;;;;;;;;;;;;;;;;4918221;28;426179;-83
2024/01/30 15:12:58;;;;;;;;;;;;;;;;;;4880278;28;416172;-83
2024/01/30 15:15:26;;;;;;;;;;;;;;;;;;4919009;28;323177;-82
2024/01/30 15:18:12;;;;;;;;;;;;;;;;;;4906006;28;540172;-82
2024/01/30 15:20:40;;;;;;;;;;;;;;;;;;4901698;28;328172;-83
2024/01/30 15:23:07;;;;;;;;;;;;;;;;;;4897045;28;449188;-82
2024/01/30 15:25:34;;;;;;;;;;;;;;;;;;4915031;28;525174;-82
2024/01/30 15:28:02;;;;;;;;;;;;;;;;;;4934313;28;409106;-82
2024/01/30 15:30:29;;;;;;;;;;;;;;;;;;4914497;28;239156;-82
2024/01/30 15:32:57;;;;;;;;;;;;;;;;;;4895304;28;275180;-83
2024/01/30 15:35:24;;;;;;;;;;;;;;;;;;4909339;28;280144;-82
2024/01/30 15:37:51;;;;;;;;;;;;;;;;;;4885325;28;367167;-83
2024/01/30 15:40:18;;;;;;;;;;;;;;;;;;4886665;28;513158;-83
2024/01/30 15:42:46;;;;;;;;;;;;;;;;;;4872446;28;473176;-82
2024/01/30 15:45:13;;;;;;;;;;;;;;;;;;4855416;28;498155;-83
2024/01/30 15:47:40;;;;;;;;;;;;;;;;;;4883988;28;296154;-83
2024/01/30 15:50:09;;;;;;;;;;;;;;;;;;4857881;28;721165;-82
2024/01/30 15:52:36;;;;;;;;;;;;;;;;;;4880516;28;371152;-83
2024/01/30 15:55:04;;;;;;;;;;;;;;;;;;4825225;28;965183;-82
2024/01/30 15:57:34;;;;;;;;;;;;;;;;;;4835488;28;539165;-83
2024/01/30 16:00:03;;;;;;;;;;;;;;;;;;4830505;28;1040158;-82
2024/01/30 16:02:31;;;;;;;;;;;;;;;;;;4787282;28;1017202;-82
2024/01/30 16:04:59;;;;;;;;;;;;;;;;;;4809654;28;865151;-82
2024/01/30 16:07:27;;;;;;;;;;;;;;;;;;4791949;28;637167;-82
2024/01/30 16:09:54;;;;;;;;;;;;;;;;;;4852467;28;513160;-82
2024/01/30 16:12:21;;;;;;;;;;;;;;;;;;4862327;28;547173;-82
2024/01/30 16:14:49;;;;;;;;;;;;;;;;;;4880955;28;324176;-82
2024/01/30 16:17:18;;;;;;;;;;;;;;;;;;4832346;28;1569186;-83
2024/01/30 16:19:45;;;;;;;;;;;;;;;;;;4758809;28;716174;-83
2024/01/30 16:22:13;;;;;;;;;;;;;;;;;;4831517;28;505229;-83
2024/01/30 16:24:40;;;;;;;;;;;;;;;;;;4825457;28;1149171;-83
2024/01/30 16:27:07;;;;;;;;;;;;;;;;;;4800437;28;1017168;-82
2024/01/30 16:29:35;;;;;;;;;;;;;;;;;;4852717;28;614152;-82
2024/01/30 16:32:02;;;;;;;;;;;;;;;;;;4858905;28;579163;-83
2024/01/30 16:34:29;;;;;;;;;;;;;;;;;;4806123;28;718157;-83
2024/01/30 16:37:00;;;;;;;;;;;;;;;;;;4835708;28;528172;-83
2024/01/30 16:39:27;;;;;;;;;;;;;;;;;;4903859;28;385140;-82